sensor_id;sensor_type;location;lat;lon;timestamp;temperature;humidity
15156;DHT22;7678;50.058;8.306;2023-04-22T00:00:55;9.90;99.90
15156;DHT22;7678;50.058;8.306;2023-04-22T00:03:25;9.90;99.90
15156;DHT22;7678;50.058;8.306;2023-04-22T00:05:54;10.00;99.90
15156;DHT22;7678;50.058;8.306;2023-04-22T00:08:24;9.90;99.90
15156;DHT22;7678;50.058;8.306;2023-04-22T00:10:52;9.90;99.90
15156;DHT22;7678;50.058;8.306;2023-04-22T00:13:22;9.90;99.90
15156;DHT22;7678;50.058;8.306;2023-04-22T00:15:50;9.90;99.90
15156;DHT22;7678;50.058;8.306;2023-04-22T00:18:18;9.80;99.90
15156;DHT22;7678;50.058;8.306;2023-04-22T00:20:46;10.00;99.90
15156;DHT22;7678;50.058;8.306;2023-04-22T00:23:15;9.90;99.90
15156;DHT22;7678;50.058;8.306;2023-04-22T00:25:45;9.90;99.90
15156;DHT22;7678;50.058;8.306;2023-04-22T00:28:13;9.90;99.90
15156;DHT22;7678;50.058;8.306;2023-04-22T00:30:41;9.90;99.90
15156;DHT22;7678;50.058;8.306;2023-04-22T00:33:09;9.90;99.90
15156;DHT22;7678;50.058;8.306;2023-04-22T00:35:37;10.10;99.90
15156;DHT22;7678;50.058;8.306;2023-04-22T00:38:05;10.20;99.90
15156;DHT22;7678;50.058;8.306;2023-04-22T00:40:33;10.00;99.90
15156;DHT22;7678;50.058;8.306;2023-04-22T00:43:03;9.90;99.90
15156;DHT22;7678;50.058;8.306;2023-04-22T00:45:31;9.90;99.90
15156;DHT22;7678;50.058;8.306;2023-04-22T00:48:00;10.00;99.90
15156;DHT22;7678;50.058;8.306;2023-04-22T00:50:29;10.00;99.90
15156;DHT22;7678;50.058;8.306;2023-04-22T00:52:57;10.00;99.90
15156;DHT22;7678;50.058;8.306;2023-04-22T00:55:25;10.00;99.90
15156;DHT22;7678;50.058;8.306;2023-04-22T00:57:55;10.00;99.90
15156;DHT22;7678;50.058;8.306;2023-04-22T01:00:27;10.00;99.90
15156;DHT22;7678;50.058;8.306;2023-04-22T01:02:56;10.10;99.90
15156;DHT22;7678;50.058;8.306;2023-04-22T01:05:25;10.20;99.90
15156;DHT22;7678;50.058;8.306;2023-04-22T01:07:54;10.30;99.90
15156;DHT22;7678;50.058;8.306;2023-04-22T01:10:22;10.30;99.90
15156;DHT22;7678;50.058;8.306;2023-04-22T01:12:50;10.30;99.90
15156;DHT22;7678;50.058;8.306;2023-04-22T01:15:18;10.20;99.90
15156;DHT22;7678;50.058;8.306;2023-04-22T01:17:48;10.20;99.90
15156;DHT22;7678;50.058;8.306;2023-04-22T01:20:23;10.30;99.90
15156;DHT22;7678;50.058;8.306;2023-04-22T01:22:52;10.20;99.90
15156;DHT22;7678;50.058;8.306;2023-04-22T01:25:22;10.10;99.90
15156;DHT22;7678;50.058;8.306;2023-04-22T01:27:50;10.10;99.90
15156;DHT22;7678;50.058;8.306;2023-04-22T01:30:19;10.00;99.90
15156;DHT22;7678;50.058;8.306;2023-04-22T01:32:48;10.00;99.90
15156;DHT22;7678;50.058;8.306;2023-04-22T01:35:16;10.00;99.90
15156;DHT22;7678;50.058;8.306;2023-04-22T01:37:44;10.10;99.90
15156;DHT22;7678;50.058;8.306;2023-04-22T01:40:12;10.20;99.90
15156;DHT22;7678;50.058;8.306;2023-04-22T01:42:47;10.30;99.90
15156;DHT22;7678;50.058;8.306;2023-04-22T01:45:15;10.20;99.90
15156;DHT22;7678;50.058;8.306;2023-04-22T01:47:44;10.20;99.90
15156;DHT22;7678;50.058;8.306;2023-04-22T01:50:12;10.30;99.90
15156;DHT22;7678;50.058;8.306;2023-04-22T01:52:40;10.40;99.90
15156;DHT22;7678;50.058;8.306;2023-04-22T01:55:09;10.40;99.90
15156;DHT22;7678;50.058;8.306;2023-04-22T01:57:37;10.40;99.90
15156;DHT22;7678;50.058;8.306;2023-04-22T02:00:07;10.50;99.90
15156;DHT22;7678;50.058;8.306;2023-04-22T02:02:36;10.50;99.90
15156;DHT22;7678;50.058;8.306;2023-04-22T02:05:05;10.60;99.90
15156;DHT22;7678;50.058;8.306;2023-04-22T02:07:34;10.60;99.90
15156;DHT22;7678;50.058;8.306;2023-04-22T02:10:03;10.70;99.90
15156;DHT22;7678;50.058;8.306;2023-04-22T02:12:32;10.80;99.90
15156;DHT22;7678;50.058;8.306;2023-04-22T02:15:00;10.80;99.90
15156;DHT22;7678;50.058;8.306;2023-04-22T02:17:29;10.70;99.90
15156;DHT22;7678;50.058;8.306;2023-04-22T02:19:57;10.70;99.90
15156;DHT22;7678;50.058;8.306;2023-04-22T02:22:26;10.70;99.90
15156;DHT22;7678;50.058;8.306;2023-04-22T02:24:55;10.80;99.90
15156;DHT22;7678;50.058;8.306;2023-04-22T02:27:23;10.80;99.90
15156;DHT22;7678;50.058;8.306;2023-04-22T02:29:51;10.80;99.90
15156;DHT22;7678;50.058;8.306;2023-04-22T02:32:19;10.80;99.90
15156;DHT22;7678;50.058;8.306;2023-04-22T02:34:48;10.70;99.90
15156;DHT22;7678;50.058;8.306;2023-04-22T02:37:17;10.70;99.90
15156;DHT22;7678;50.058;8.306;2023-04-22T02:39:46;10.60;99.90
15156;DHT22;7678;50.058;8.306;2023-04-22T02:42:14;10.70;99.90
15156;DHT22;7678;50.058;8.306;2023-04-22T02:44:42;10.70;99.90
15156;DHT22;7678;50.058;8.306;2023-04-22T02:47:10;10.70;99.90
15156;DHT22;7678;50.058;8.306;2023-04-22T02:49:38;10.70;99.90
15156;DHT22;7678;50.058;8.306;2023-04-22T02:52:08;10.60;99.90
15156;DHT22;7678;50.058;8.306;2023-04-22T02:54:39;10.50;99.90
15156;DHT22;7678;50.058;8.306;2023-04-22T02:57:07;10.40;99.90
15156;DHT22;7678;50.058;8.306;2023-04-22T02:59:35;10.30;99.90
15156;DHT22;7678;50.058;8.306;2023-04-22T03:02:04;10.20;99.90
15156;DHT22;7678;50.058;8.306;2023-04-22T03:04:33;10.20;99.90
15156;DHT22;7678;50.058;8.306;2023-04-22T03:07:01;10.20;99.90
15156;DHT22;7678;50.058;8.306;2023-04-22T03:09:31;10.20;99.90
15156;DHT22;7678;50.058;8.306;2023-04-22T03:11:59;10.30;99.90
15156;DHT22;7678;50.058;8.306;2023-04-22T03:14:28;10.20;99.90
15156;DHT22;7678;50.058;8.306;2023-04-22T03:16:56;10.10;99.90
15156;DHT22;7678;50.058;8.306;2023-04-22T03:19:24;10.10;99.90
15156;DHT22;7678;50.058;8.306;2023-04-22T03:21:52;10.00;99.90
15156;DHT22;7678;50.058;8.306;2023-04-22T03:24:22;9.80;99.90
15156;DHT22;7678;50.058;8.306;2023-04-22T03:26:51;9.80;99.90
15156;DHT22;7678;50.058;8.306;2023-04-22T03:29:19;9.80;99.90
15156;DHT22;7678;50.058;8.306;2023-04-22T03:31:47;9.70;99.90
15156;DHT22;7678;50.058;8.306;2023-04-22T03:34:15;9.80;99.90
15156;DHT22;7678;50.058;8.306;2023-04-22T03:36:43;9.70;99.90
15156;DHT22;7678;50.058;8.306;2023-04-22T03:39:11;9.50;99.90
15156;DHT22;7678;50.058;8.306;2023-04-22T03:41:39;9.50;99.90
15156;DHT22;7678;50.058;8.306;2023-04-22T03:44:09;9.60;99.90
15156;DHT22;7678;50.058;8.306;2023-04-22T03:46:37;9.40;99.90
15156;DHT22;7678;50.058;8.306;2023-04-22T03:49:05;9.50;99.90
15156;DHT22;7678;50.058;8.306;2023-04-22T03:51:34;9.40;99.90
15156;DHT22;7678;50.058;8.306;2023-04-22T03:54:02;9.50;99.90
15156;DHT22;7678;50.058;8.306;2023-04-22T03:56:30;9.50;99.90
15156;DHT22;7678;50.058;8.306;2023-04-22T03:58:59;9.40;99.90
15156;DHT22;7678;50.058;8.306;2023-04-22T04:01:28;9.50;99.90
15156;DHT22;7678;50.058;8.306;2023-04-22T04:03:56;9.60;99.90
15156;DHT22;7678;50.058;8.306;2023-04-22T04:06:25;9.60;99.90
15156;DHT22;7678;50.058;8.306;2023-04-22T04:08:53;9.60;99.90
15156;DHT22;7678;50.058;8.306;2023-04-22T04:11:21;9.50;99.90
15156;DHT22;7678;50.058;8.306;2023-04-22T04:13:49;9.60;99.90
15156;DHT22;7678;50.058;8.306;2023-04-22T04:16:18;9.60;99.90
15156;DHT22;7678;50.058;8.306;2023-04-22T04:18:50;9.40;99.90
15156;DHT22;7678;50.058;8.306;2023-04-22T04:21:18;9.40;99.90
15156;DHT22;7678;50.058;8.306;2023-04-22T04:23:46;9.50;99.90
15156;DHT22;7678;50.058;8.306;2023-04-22T04:26:14;9.30;99.90
15156;DHT22;7678;50.058;8.306;2023-04-22T04:28:42;9.20;99.90
15156;DHT22;7678;50.058;8.306;2023-04-22T04:31:10;9.30;99.90
15156;DHT22;7678;50.058;8.306;2023-04-22T04:33:38;9.20;99.90
15156;DHT22;7678;50.058;8.306;2023-04-22T04:36:08;9.20;99.90
15156;DHT22;7678;50.058;8.306;2023-04-22T04:38:36;9.20;99.90
15156;DHT22;7678;50.058;8.306;2023-04-22T04:41:04;9.10;99.90
15156;DHT22;7678;50.058;8.306;2023-04-22T04:43:34;9.20;99.90
15156;DHT22;7678;50.058;8.306;2023-04-22T04:46:02;9.20;99.90
15156;DHT22;7678;50.058;8.306;2023-04-22T04:48:30;9.20;99.90
15156;DHT22;7678;50.058;8.306;2023-04-22T04:51:02;9.30;99.90
15156;DHT22;7678;50.058;8.306;2023-04-22T04:53:33;9.40;99.90
15156;DHT22;7678;50.058;8.306;2023-04-22T04:56:01;9.60;99.90
15156;DHT22;7678;50.058;8.306;2023-04-22T04:58:29;9.60;99.90
15156;DHT22;7678;50.058;8.306;2023-04-22T05:00:57;9.60;99.90
15156;DHT22;7678;50.058;8.306;2023-04-22T05:03:26;9.50;99.90
15156;DHT22;7678;50.058;8.306;2023-04-22T05:05:55;9.50;99.90
15156;DHT22;7678;50.058;8.306;2023-04-22T05:08:23;9.40;99.90
15156;DHT22;7678;50.058;8.306;2023-04-22T05:10:52;9.30;99.90
15156;DHT22;7678;50.058;8.306;2023-04-22T05:13:20;9.30;99.90
15156;DHT22;7678;50.058;8.306;2023-04-22T05:15:48;9.40;99.90
15156;DHT22;7678;50.058;8.306;2023-04-22T05:18:17;9.40;99.90
15156;DHT22;7678;50.058;8.306;2023-04-22T05:20:45;9.50;99.90
15156;DHT22;7678;50.058;8.306;2023-04-22T05:23:13;9.60;99.90
15156;DHT22;7678;50.058;8.306;2023-04-22T05:25:41;9.70;99.90
15156;DHT22;7678;50.058;8.306;2023-04-22T05:28:11;9.80;99.90
15156;DHT22;7678;50.058;8.306;2023-04-22T05:30:39;9.80;99.90
15156;DHT22;7678;50.058;8.306;2023-04-22T05:33:07;9.80;99.90
15156;DHT22;7678;50.058;8.306;2023-04-22T05:35:35;9.80;99.90
15156;DHT22;7678;50.058;8.306;2023-04-22T05:38:03;9.80;99.90
15156;DHT22;7678;50.058;8.306;2023-04-22T05:40:31;9.70;99.90
15156;DHT22;7678;50.058;8.306;2023-04-22T05:42:59;9.90;99.90
15156;DHT22;7678;50.058;8.306;2023-04-22T05:45:28;9.80;99.90
15156;DHT22;7678;50.058;8.306;2023-04-22T05:47:56;9.90;99.90
15156;DHT22;7678;50.058;8.306;2023-04-22T05:50:24;10.00;99.90
15156;DHT22;7678;50.058;8.306;2023-04-22T05:52:52;10.20;99.90
15156;DHT22;7678;50.058;8.306;2023-04-22T05:55:21;10.20;99.90
15156;DHT22;7678;50.058;8.306;2023-04-22T05:57:49;10.20;99.90
15156;DHT22;7678;50.058;8.306;2023-04-22T06:00:17;10.30;99.90
15156;DHT22;7678;50.058;8.306;2023-04-22T06:02:46;10.40;99.90
15156;DHT22;7678;50.058;8.306;2023-04-22T06:05:15;10.60;99.90
15156;DHT22;7678;50.058;8.306;2023-04-22T06:07:43;10.70;99.90
15156;DHT22;7678;50.058;8.306;2023-04-22T06:10:11;10.90;99.90
15156;DHT22;7678;50.058;8.306;2023-04-22T06:12:39;11.00;99.90
15156;DHT22;7678;50.058;8.306;2023-04-22T06:15:08;11.10;99.90
15156;DHT22;7678;50.058;8.306;2023-04-22T06:17:37;11.20;99.90
15156;DHT22;7678;50.058;8.306;2023-04-22T06:20:07;11.20;99.90
15156;DHT22;7678;50.058;8.306;2023-04-22T06:22:35;11.30;99.90
15156;DHT22;7678;50.058;8.306;2023-04-22T06:25:04;11.40;99.90
15156;DHT22;7678;50.058;8.306;2023-04-22T06:27:32;11.50;99.90
15156;DHT22;7678;50.058;8.306;2023-04-22T06:30:00;11.50;99.90
15156;DHT22;7678;50.058;8.306;2023-04-22T06:32:28;11.50;99.90
15156;DHT22;7678;50.058;8.306;2023-04-22T06:34:56;11.60;99.90
15156;DHT22;7678;50.058;8.306;2023-04-22T06:37:26;11.60;99.90
15156;DHT22;7678;50.058;8.306;2023-04-22T06:39:53;11.60;99.90
15156;DHT22;7678;50.058;8.306;2023-04-22T06:42:21;11.70;99.90
15156;DHT22;7678;50.058;8.306;2023-04-22T06:44:49;11.80;99.90
15156;DHT22;7678;50.058;8.306;2023-04-22T06:47:17;11.90;99.90
15156;DHT22;7678;50.058;8.306;2023-04-22T06:49:45;12.10;99.90
15156;DHT22;7678;50.058;8.306;2023-04-22T06:52:13;12.10;99.90
15156;DHT22;7678;50.058;8.306;2023-04-22T06:54:42;12.20;99.90
15156;DHT22;7678;50.058;8.306;2023-04-22T06:57:10;12.40;99.90
15156;DHT22;7678;50.058;8.306;2023-04-22T06:59:38;12.40;99.90
15156;DHT22;7678;50.058;8.306;2023-04-22T07:02:07;12.40;99.90
15156;DHT22;7678;50.058;8.306;2023-04-22T07:04:35;12.50;99.90
15156;DHT22;7678;50.058;8.306;2023-04-22T07:07:03;12.70;99.90
15156;DHT22;7678;50.058;8.306;2023-04-22T07:09:32;12.90;99.90
15156;DHT22;7678;50.058;8.306;2023-04-22T07:12:03;13.00;99.90
15156;DHT22;7678;50.058;8.306;2023-04-22T07:14:32;13.00;99.90
15156;DHT22;7678;50.058;8.306;2023-04-22T07:17:00;13.20;99.90
15156;DHT22;7678;50.058;8.306;2023-04-22T07:19:28;13.20;99.90
15156;DHT22;7678;50.058;8.306;2023-04-22T07:22:00;13.50;99.90
15156;DHT22;7678;50.058;8.306;2023-04-22T07:24:29;13.50;99.90
15156;DHT22;7678;50.058;8.306;2023-04-22T07:26:57;13.50;99.90
15156;DHT22;7678;50.058;8.306;2023-04-22T07:29:27;13.50;99.90
15156;DHT22;7678;50.058;8.306;2023-04-22T07:31:55;13.60;99.90
15156;DHT22;7678;50.058;8.306;2023-04-22T07:34:23;13.80;99.90
15156;DHT22;7678;50.058;8.306;2023-04-22T07:36:51;13.80;99.90
15156;DHT22;7678;50.058;8.306;2023-04-22T07:39:20;13.80;99.90
15156;DHT22;7678;50.058;8.306;2023-04-22T07:41:48;13.90;99.90
15156;DHT22;7678;50.058;8.306;2023-04-22T07:44:16;13.80;99.90
15156;DHT22;7678;50.058;8.306;2023-04-22T07:46:49;13.60;99.90
15156;DHT22;7678;50.058;8.306;2023-04-22T07:49:17;13.60;99.90
15156;DHT22;7678;50.058;8.306;2023-04-22T07:51:45;13.80;99.90
15156;DHT22;7678;50.058;8.306;2023-04-22T07:54:13;13.90;99.90
15156;DHT22;7678;50.058;8.306;2023-04-22T07:56:41;14.00;99.90
15156;DHT22;7678;50.058;8.306;2023-04-22T07:59:09;14.20;99.90
15156;DHT22;7678;50.058;8.306;2023-04-22T08:01:37;14.10;99.90
15156;DHT22;7678;50.058;8.306;2023-04-22T08:04:07;14.30;99.90
15156;DHT22;7678;50.058;8.306;2023-04-22T08:06:36;14.40;99.90
15156;DHT22;7678;50.058;8.306;2023-04-22T08:09:04;14.90;99.90
15156;DHT22;7678;50.058;8.306;2023-04-22T08:11:32;15.10;99.90
15156;DHT22;7678;50.058;8.306;2023-04-22T08:14:00;15.30;99.90
15156;DHT22;7678;50.058;8.306;2023-04-22T08:16:28;15.30;99.90
15156;DHT22;7678;50.058;8.306;2023-04-22T08:18:56;15.10;99.90
15156;DHT22;7678;50.058;8.306;2023-04-22T08:21:25;15.40;99.90
15156;DHT22;7678;50.058;8.306;2023-04-22T08:23:54;15.50;99.90
15156;DHT22;7678;50.058;8.306;2023-04-22T08:26:22;15.20;99.90
15156;DHT22;7678;50.058;8.306;2023-04-22T08:28:50;15.20;99.90
15156;DHT22;7678;50.058;8.306;2023-04-22T08:31:17;15.50;99.90
15156;DHT22;7678;50.058;8.306;2023-04-22T08:33:46;15.50;99.90
15156;DHT22;7678;50.058;8.306;2023-04-22T08:36:14;15.70;99.90
15156;DHT22;7678;50.058;8.306;2023-04-22T08:38:43;16.10;99.90
15156;DHT22;7678;50.058;8.306;2023-04-22T08:41:14;16.20;99.90
15156;DHT22;7678;50.058;8.306;2023-04-22T08:43:42;16.30;99.90
15156;DHT22;7678;50.058;8.306;2023-04-22T08:46:11;16.30;99.90
15156;DHT22;7678;50.058;8.306;2023-04-22T08:48:41;16.30;99.90
15156;DHT22;7678;50.058;8.306;2023-04-22T08:51:09;16.70;99.90
15156;DHT22;7678;50.058;8.306;2023-04-22T08:53:38;16.60;99.90
15156;DHT22;7678;50.058;8.306;2023-04-22T08:56:07;16.50;99.90
15156;DHT22;7678;50.058;8.306;2023-04-22T08:58:35;16.80;99.90
15156;DHT22;7678;50.058;8.306;2023-04-22T09:01:03;17.00;99.90
15156;DHT22;7678;50.058;8.306;2023-04-22T09:03:32;17.10;99.90
15156;DHT22;7678;50.058;8.306;2023-04-22T09:06:02;16.90;99.90
15156;DHT22;7678;50.058;8.306;2023-04-22T09:08:31;17.00;99.90
15156;DHT22;7678;50.058;8.306;2023-04-22T09:10:59;17.40;99.90
15156;DHT22;7678;50.058;8.306;2023-04-22T09:13:28;17.20;99.90
15156;DHT22;7678;50.058;8.306;2023-04-22T09:15:56;17.10;99.90
15156;DHT22;7678;50.058;8.306;2023-04-22T09:18:25;17.00;99.90
15156;DHT22;7678;50.058;8.306;2023-04-22T09:20:54;17.00;99.90
15156;DHT22;7678;50.058;8.306;2023-04-22T09:23:23;17.20;99.90
15156;DHT22;7678;50.058;8.306;2023-04-22T09:25:51;17.20;99.90
15156;DHT22;7678;50.058;8.306;2023-04-22T09:28:19;17.20;99.90
15156;DHT22;7678;50.058;8.306;2023-04-22T09:30:48;17.40;99.90
15156;DHT22;7678;50.058;8.306;2023-04-22T09:33:16;17.60;99.90
15156;DHT22;7678;50.058;8.306;2023-04-22T09:35:44;17.70;99.90
15156;DHT22;7678;50.058;8.306;2023-04-22T09:38:12;17.80;99.90
15156;DHT22;7678;50.058;8.306;2023-04-22T09:40:41;18.10;99.90
15156;DHT22;7678;50.058;8.306;2023-04-22T09:43:10;18.30;99.90
15156;DHT22;7678;50.058;8.306;2023-04-22T09:45:39;18.50;99.90
15156;DHT22;7678;50.058;8.306;2023-04-22T09:48:10;18.40;99.90
15156;DHT22;7678;50.058;8.306;2023-04-22T09:50:39;18.40;99.90
15156;DHT22;7678;50.058;8.306;2023-04-22T09:53:12;18.70;99.90
15156;DHT22;7678;50.058;8.306;2023-04-22T09:55:42;18.70;99.90
15156;DHT22;7678;50.058;8.306;2023-04-22T09:58:12;18.60;99.90
15156;DHT22;7678;50.058;8.306;2023-04-22T10:00:42;18.70;99.90
15156;DHT22;7678;50.058;8.306;2023-04-22T10:03:12;18.90;99.90
15156;DHT22;7678;50.058;8.306;2023-04-22T10:05:40;18.60;99.90
15156;DHT22;7678;50.058;8.306;2023-04-22T10:08:11;18.60;99.90
15156;DHT22;7678;50.058;8.306;2023-04-22T10:10:40;18.40;99.90
15156;DHT22;7678;50.058;8.306;2023-04-22T10:13:08;18.60;99.90
15156;DHT22;7678;50.058;8.306;2023-04-22T10:15:39;18.70;99.90
15156;DHT22;7678;50.058;8.306;2023-04-22T10:18:11;19.20;99.90
15156;DHT22;7678;50.058;8.306;2023-04-22T10:20:41;19.00;99.90
15156;DHT22;7678;50.058;8.306;2023-04-22T10:23:13;18.90;99.10
15156;DHT22;7678;50.058;8.306;2023-04-22T10:25:41;19.00;98.90
15156;DHT22;7678;50.058;8.306;2023-04-22T10:28:10;19.00;99.90
15156;DHT22;7678;50.058;8.306;2023-04-22T10:30:39;19.10;99.70
15156;DHT22;7678;50.058;8.306;2023-04-22T10:33:36;19.30;98.90
15156;DHT22;7678;50.058;8.306;2023-04-22T10:36:08;19.50;97.60
15156;DHT22;7678;50.058;8.306;2023-04-22T10:38:38;19.70;96.60
15156;DHT22;7678;50.058;8.306;2023-04-22T10:41:06;19.70;96.60
15156;DHT22;7678;50.058;8.306;2023-04-22T10:43:41;19.80;95.30
15156;DHT22;7678;50.058;8.306;2023-04-22T10:49:13;19.50;94.60
15156;DHT22;7678;50.058;8.306;2023-04-22T10:51:44;19.80;93.80
15156;DHT22;7678;50.058;8.306;2023-04-22T10:54:58;20.00;92.20
15156;DHT22;7678;50.058;8.306;2023-04-22T10:57:32;20.20;90.40
15156;DHT22;7678;50.058;8.306;2023-04-22T11:00:30;20.30;91.70
15156;DHT22;7678;50.058;8.306;2023-04-22T11:03:24;20.50;91.70
15156;DHT22;7678;50.058;8.306;2023-04-22T11:06:14;20.50;91.10
15156;DHT22;7678;50.058;8.306;2023-04-22T11:08:48;20.60;87.70
15156;DHT22;7678;50.058;8.306;2023-04-22T11:11:17;20.90;86.90
15156;DHT22;7678;50.058;8.306;2023-04-22T11:13:46;20.70;85.20
15156;DHT22;7678;50.058;8.306;2023-04-22T11:16:16;20.10;87.90
15156;DHT22;7678;50.058;8.306;2023-04-22T11:18:47;20.60;86.40
15156;DHT22;7678;50.058;8.306;2023-04-22T11:21:15;20.50;76.10
15156;DHT22;7678;50.058;8.306;2023-04-22T11:23:50;20.50;80.20
15156;DHT22;7678;50.058;8.306;2023-04-22T11:26:31;20.70;79.70
15156;DHT22;7678;50.058;8.306;2023-04-22T11:29:00;21.10;78.00
15156;DHT22;7678;50.058;8.306;2023-04-22T11:31:29;20.90;74.20
15156;DHT22;7678;50.058;8.306;2023-04-22T11:33:58;21.10;74.70
15156;DHT22;7678;50.058;8.306;2023-04-22T11:36:26;21.40;75.00
15156;DHT22;7678;50.058;8.306;2023-04-22T11:38:55;21.80;74.40
15156;DHT22;7678;50.058;8.306;2023-04-22T11:41:23;21.70;70.00
15156;DHT22;7678;50.058;8.306;2023-04-22T11:43:52;21.70;69.00
15156;DHT22;7678;50.058;8.306;2023-04-22T11:46:27;22.00;60.20
15156;DHT22;7678;50.058;8.306;2023-04-22T11:49:10;21.90;61.50
15156;DHT22;7678;50.058;8.306;2023-04-22T11:51:51;22.30;59.20
15156;DHT22;7678;50.058;8.306;2023-04-22T11:54:34;22.30;57.10
15156;DHT22;7678;50.058;8.306;2023-04-22T11:57:03;22.30;59.40
15156;DHT22;7678;50.058;8.306;2023-04-22T11:59:32;22.30;58.10
15156;DHT22;7678;50.058;8.306;2023-04-22T12:02:04;22.50;56.90
15156;DHT22;7678;50.058;8.306;2023-04-22T12:04:35;22.30;57.00
15156;DHT22;7678;50.058;8.306;2023-04-22T12:07:03;22.70;58.00
15156;DHT22;7678;50.058;8.306;2023-04-22T12:09:33;22.50;56.30
15156;DHT22;7678;50.058;8.306;2023-04-22T12:12:02;22.50;56.50
15156;DHT22;7678;50.058;8.306;2023-04-22T12:14:31;22.70;55.80
15156;DHT22;7678;50.058;8.306;2023-04-22T12:17:02;22.50;56.30
15156;DHT22;7678;50.058;8.306;2023-04-22T12:19:31;22.60;55.00
15156;DHT22;7678;50.058;8.306;2023-04-22T12:21:58;22.90;56.70
15156;DHT22;7678;50.058;8.306;2023-04-22T12:24:27;22.90;55.80
15156;DHT22;7678;50.058;8.306;2023-04-22T12:26:56;22.30;56.60
15156;DHT22;7678;50.058;8.306;2023-04-22T12:29:30;22.10;57.30
15156;DHT22;7678;50.058;8.306;2023-04-22T12:31:58;22.20;59.30
15156;DHT22;7678;50.058;8.306;2023-04-22T12:34:35;22.20;60.30
15156;DHT22;7678;50.058;8.306;2023-04-22T12:37:03;22.20;60.70
15156;DHT22;7678;50.058;8.306;2023-04-22T12:39:31;22.10;58.30
15156;DHT22;7678;50.058;8.306;2023-04-22T12:42:00;22.20;58.00
15156;DHT22;7678;50.058;8.306;2023-04-22T12:44:28;22.00;57.90
15156;DHT22;7678;50.058;8.306;2023-04-22T12:46:56;21.80;58.20
15156;DHT22;7678;50.058;8.306;2023-04-22T12:49:24;21.80;60.50
15156;DHT22;7678;50.058;8.306;2023-04-22T12:51:52;21.80;58.90
15156;DHT22;7678;50.058;8.306;2023-04-22T12:54:21;21.60;58.10
15156;DHT22;7678;50.058;8.306;2023-04-22T12:56:49;21.90;57.80
15156;DHT22;7678;50.058;8.306;2023-04-22T12:59:19;22.10;57.30
15156;DHT22;7678;50.058;8.306;2023-04-22T13:01:47;21.80;56.20
15156;DHT22;7678;50.058;8.306;2023-04-22T13:04:17;21.90;55.70
15156;DHT22;7678;50.058;8.306;2023-04-22T13:06:45;21.90;57.30
15156;DHT22;7678;50.058;8.306;2023-04-22T13:09:16;21.70;57.00
15156;DHT22;7678;50.058;8.306;2023-04-22T13:11:44;21.30;57.80
15156;DHT22;7678;50.058;8.306;2023-04-22T13:14:14;21.20;58.90
15156;DHT22;7678;50.058;8.306;2023-04-22T13:16:44;21.10;58.70
15156;DHT22;7678;50.058;8.306;2023-04-22T13:19:12;20.90;57.90
15156;DHT22;7678;50.058;8.306;2023-04-22T13:21:40;20.80;59.40
15156;DHT22;7678;50.058;8.306;2023-04-22T13:24:08;20.70;58.00
15156;DHT22;7678;50.058;8.306;2023-04-22T13:26:37;20.60;55.70
15156;DHT22;7678;50.058;8.306;2023-04-22T13:29:05;20.40;52.90
15156;DHT22;7678;50.058;8.306;2023-04-22T13:31:37;20.30;51.90
15156;DHT22;7678;50.058;8.306;2023-04-22T13:34:06;20.10;53.00
15156;DHT22;7678;50.058;8.306;2023-04-22T13:36:34;20.00;53.20
15156;DHT22;7678;50.058;8.306;2023-04-22T13:39:02;19.90;52.90
15156;DHT22;7678;50.058;8.306;2023-04-22T13:41:30;19.80;53.10
15156;DHT22;7678;50.058;8.306;2023-04-22T13:43:58;19.70;53.50
15156;DHT22;7678;50.058;8.306;2023-04-22T13:46:26;19.60;53.60
15156;DHT22;7678;50.058;8.306;2023-04-22T13:48:54;19.50;54.30
15156;DHT22;7678;50.058;8.306;2023-04-22T13:51:24;19.50;53.40
15156;DHT22;7678;50.058;8.306;2023-04-22T13:53:52;19.40;54.20
15156;DHT22;7678;50.058;8.306;2023-04-22T13:56:19;19.40;54.70
15156;DHT22;7678;50.058;8.306;2023-04-22T13:58:47;19.30;54.30
15156;DHT22;7678;50.058;8.306;2023-04-22T14:01:15;19.20;54.90
15156;DHT22;7678;50.058;8.306;2023-04-22T14:03:44;19.10;56.00
15156;DHT22;7678;50.058;8.306;2023-04-22T14:06:13;19.10;57.10
15156;DHT22;7678;50.058;8.306;2023-04-22T14:08:42;19.00;57.90
15156;DHT22;7678;50.058;8.306;2023-04-22T14:11:11;18.90;57.30
15156;DHT22;7678;50.058;8.306;2023-04-22T14:13:39;18.70;57.90
15156;DHT22;7678;50.058;8.306;2023-04-22T14:16:08;18.70;58.70
15156;DHT22;7678;50.058;8.306;2023-04-22T14:18:38;18.60;59.00
15156;DHT22;7678;50.058;8.306;2023-04-22T14:21:07;18.60;59.30
15156;DHT22;7678;50.058;8.306;2023-04-22T14:23:36;18.60;60.50
15156;DHT22;7678;50.058;8.306;2023-04-22T14:26:06;18.50;60.60
15156;DHT22;7678;50.058;8.306;2023-04-22T14:28:35;18.50;61.40
15156;DHT22;7678;50.058;8.306;2023-04-22T14:31:03;18.50;61.60
15156;DHT22;7678;50.058;8.306;2023-04-22T14:33:32;18.50;62.10
15156;DHT22;7678;50.058;8.306;2023-04-22T14:36:00;18.40;63.90
15156;DHT22;7678;50.058;8.306;2023-04-22T14:38:27;18.30;63.30
15156;DHT22;7678;50.058;8.306;2023-04-22T14:40:56;18.40;64.40
15156;DHT22;7678;50.058;8.306;2023-04-22T14:43:25;18.40;64.30
15156;DHT22;7678;50.058;8.306;2023-04-22T14:45:53;18.40;63.80
15156;DHT22;7678;50.058;8.306;2023-04-22T14:48:21;18.30;65.20
15156;DHT22;7678;50.058;8.306;2023-04-22T14:50:50;18.40;65.40
15156;DHT22;7678;50.058;8.306;2023-04-22T14:53:19;18.40;66.20
15156;DHT22;7678;50.058;8.306;2023-04-22T14:55:47;18.50;66.20
15156;DHT22;7678;50.058;8.306;2023-04-22T14:58:15;18.70;66.30
15156;DHT22;7678;50.058;8.306;2023-04-22T15:00:44;18.70;65.00
15156;DHT22;7678;50.058;8.306;2023-04-22T15:03:14;18.60;67.00
15156;DHT22;7678;50.058;8.306;2023-04-22T15:05:42;18.60;67.20
15156;DHT22;7678;50.058;8.306;2023-04-22T15:08:14;18.60;68.00
15156;DHT22;7678;50.058;8.306;2023-04-22T15:10:42;18.70;68.40
15156;DHT22;7678;50.058;8.306;2023-04-22T15:13:10;18.80;69.40
15156;DHT22;7678;50.058;8.306;2023-04-22T15:15:38;18.80;69.40
15156;DHT22;7678;50.058;8.306;2023-04-22T15:18:07;18.90;68.30
15156;DHT22;7678;50.058;8.306;2023-04-22T15:20:36;19.00;67.40
15156;DHT22;7678;50.058;8.306;2023-04-22T15:23:04;19.00;68.90
15156;DHT22;7678;50.058;8.306;2023-04-22T15:25:32;19.20;71.00
15156;DHT22;7678;50.058;8.306;2023-04-22T15:28:01;19.10;67.90
15156;DHT22;7678;50.058;8.306;2023-04-22T15:30:29;19.10;69.60
15156;DHT22;7678;50.058;8.306;2023-04-22T15:32:57;19.10;68.90
15156;DHT22;7678;50.058;8.306;2023-04-22T15:35:26;19.10;68.80
15156;DHT22;7678;50.058;8.306;2023-04-22T15:37:56;19.00;70.80
15156;DHT22;7678;50.058;8.306;2023-04-22T15:40:24;18.90;73.60
15156;DHT22;7678;50.058;8.306;2023-04-22T15:42:52;18.70;73.50
15156;DHT22;7678;50.058;8.306;2023-04-22T15:45:20;18.70;74.20
15156;DHT22;7678;50.058;8.306;2023-04-22T15:47:48;18.70;76.00
15156;DHT22;7678;50.058;8.306;2023-04-22T15:50:18;18.60;75.70
15156;DHT22;7678;50.058;8.306;2023-04-22T15:52:50;18.70;77.80
15156;DHT22;7678;50.058;8.306;2023-04-22T15:55:18;18.60;80.30
15156;DHT22;7678;50.058;8.306;2023-04-22T15:57:46;18.60;77.40
15156;DHT22;7678;50.058;8.306;2023-04-22T16:00:15;18.50;79.10
15156;DHT22;7678;50.058;8.306;2023-04-22T16:02:43;18.40;78.70
15156;DHT22;7678;50.058;8.306;2023-04-22T16:05:12;18.40;80.60